sensor_id;sensor_type;location;lat;lon;timestamp;temperature;humidity
16871;DHT22;8552;48.120;-1.456;2023-07-30T00:01:22;14.50;99.90
16871;DHT22;8552;48.120;-1.456;2023-07-30T00:03:47;14.50;99.90
16871;DHT22;8552;48.120;-1.456;2023-07-30T00:06:13;14.50;99.90
16871;DHT22;8552;48.120;-1.456;2023-07-30T00:08:38;14.50;99.90
16871;DHT22;8552;48.120;-1.456;2023-07-30T00:11:04;14.40;99.90
16871;DHT22;8552;48.120;-1.456;2023-07-30T00:13:30;14.30;99.90
16871;DHT22;8552;48.120;-1.456;2023-07-30T00:15:55;14.30;99.90
16871;DHT22;8552;48.120;-1.456;2023-07-30T00:18:21;14.30;99.90
16871;DHT22;8552;48.120;-1.456;2023-07-30T00:20:46;14.20;99.90
16871;DHT22;8552;48.120;-1.456;2023-07-30T00:23:12;14.20;99.90
16871;DHT22;8552;48.120;-1.456;2023-07-30T00:25:38;14.20;99.90
16871;DHT22;8552;48.120;-1.456;2023-07-30T00:28:03;14.20;99.90
16871;DHT22;8552;48.120;-1.456;2023-07-30T00:30:29;14.20;99.90
16871;DHT22;8552;48.120;-1.456;2023-07-30T00:32:55;14.10;99.90
16871;DHT22;8552;48.120;-1.456;2023-07-30T00:35:20;14.10;99.90
16871;DHT22;8552;48.120;-1.456;2023-07-30T00:37:46;14.10;99.90
16871;DHT22;8552;48.120;-1.456;2023-07-30T00:40:12;14.10;99.90
16871;DHT22;8552;48.120;-1.456;2023-07-30T00:42:37;14.10;99.90
16871;DHT22;8552;48.120;-1.456;2023-07-30T00:45:04;14.10;99.90
16871;DHT22;8552;48.120;-1.456;2023-07-30T00:47:30;14.10;99.90
16871;DHT22;8552;48.120;-1.456;2023-07-30T00:49:56;14.00;99.90
16871;DHT22;8552;48.120;-1.456;2023-07-30T00:52:23;14.00;99.90
16871;DHT22;8552;48.120;-1.456;2023-07-30T00:54:49;13.90;99.90
16871;DHT22;8552;48.120;-1.456;2023-07-30T00:57:17;13.90;99.90
16871;DHT22;8552;48.120;-1.456;2023-07-30T00:59:44;13.90;99.90
16871;DHT22;8552;48.120;-1.456;2023-07-30T01:02:10;13.90;99.90
16871;DHT22;8552;48.120;-1.456;2023-07-30T01:04:36;13.90;99.90
16871;DHT22;8552;48.120;-1.456;2023-07-30T01:07:05;13.80;99.90
16871;DHT22;8552;48.120;-1.456;2023-07-30T01:09:32;13.80;99.90
16871;DHT22;8552;48.120;-1.456;2023-07-30T01:11:58;13.80;99.90
16871;DHT22;8552;48.120;-1.456;2023-07-30T01:14:24;13.70;99.90
16871;DHT22;8552;48.120;-1.456;2023-07-30T01:16:52;13.70;99.90
16871;DHT22;8552;48.120;-1.456;2023-07-30T01:19:18;13.70;99.90
16871;DHT22;8552;48.120;-1.456;2023-07-30T01:21:44;13.60;99.90
16871;DHT22;8552;48.120;-1.456;2023-07-30T01:24:09;13.60;99.90
16871;DHT22;8552;48.120;-1.456;2023-07-30T01:27:16;13.60;99.90
16871;DHT22;8552;48.120;-1.456;2023-07-30T01:29:48;13.50;99.90
16871;DHT22;8552;48.120;-1.456;2023-07-30T01:32:17;13.50;99.90
16871;DHT22;8552;48.120;-1.456;2023-07-30T01:34:47;13.50;99.90
16871;DHT22;8552;48.120;-1.456;2023-07-30T01:37:15;13.50;99.90
16871;DHT22;8552;48.120;-1.456;2023-07-30T01:39:42;13.40;99.90
16871;DHT22;8552;48.120;-1.456;2023-07-30T01:42:12;13.40;99.90
16871;DHT22;8552;48.120;-1.456;2023-07-30T01:44:37;13.40;99.90
16871;DHT22;8552;48.120;-1.456;2023-07-30T01:47:03;13.40;99.90
16871;DHT22;8552;48.120;-1.456;2023-07-30T01:49:29;13.40;99.90
16871;DHT22;8552;48.120;-1.456;2023-07-30T01:51:54;13.40;99.90
16871;DHT22;8552;48.120;-1.456;2023-07-30T01:54:20;13.40;99.90
16871;DHT22;8552;48.120;-1.456;2023-07-30T01:56:46;13.40;99.90
16871;DHT22;8552;48.120;-1.456;2023-07-30T01:59:11;13.50;99.90
16871;DHT22;8552;48.120;-1.456;2023-07-30T02:01:37;13.50;99.90
16871;DHT22;8552;48.120;-1.456;2023-07-30T02:04:03;13.50;99.90
16871;DHT22;8552;48.120;-1.456;2023-07-30T02:06:28;13.50;99.90
16871;DHT22;8552;48.120;-1.456;2023-07-30T02:08:54;13.50;99.90
16871;DHT22;8552;48.120;-1.456;2023-07-30T02:11:20;13.50;99.90
16871;DHT22;8552;48.120;-1.456;2023-07-30T02:13:45;13.60;99.90
16871;DHT22;8552;48.120;-1.456;2023-07-30T02:16:11;13.50;99.90
16871;DHT22;8552;48.120;-1.456;2023-07-30T02:18:36;13.60;99.90
16871;DHT22;8552;48.120;-1.456;2023-07-30T02:21:02;13.60;99.90
16871;DHT22;8552;48.120;-1.456;2023-07-30T02:23:28;13.60;99.90
16871;DHT22;8552;48.120;-1.456;2023-07-30T02:25:54;13.60;99.90
16871;DHT22;8552;48.120;-1.456;2023-07-30T02:28:19;13.60;99.90
16871;DHT22;8552;48.120;-1.456;2023-07-30T02:30:45;13.60;99.90
16871;DHT22;8552;48.120;-1.456;2023-07-30T02:33:11;13.70;99.90
16871;DHT22;8552;48.120;-1.456;2023-07-30T02:35:36;13.60;99.90
16871;DHT22;8552;48.120;-1.456;2023-07-30T02:38:02;13.70;99.90
16871;DHT22;8552;48.120;-1.456;2023-07-30T02:40:28;13.70;99.90
16871;DHT22;8552;48.120;-1.456;2023-07-30T02:42:54;13.70;99.90
16871;DHT22;8552;48.120;-1.456;2023-07-30T02:45:20;13.70;99.90
16871;DHT22;8552;48.120;-1.456;2023-07-30T02:47:45;13.80;99.90
16871;DHT22;8552;48.120;-1.456;2023-07-30T02:50:11;13.80;99.90
16871;DHT22;8552;48.120;-1.456;2023-07-30T02:52:37;13.80;99.90
16871;DHT22;8552;48.120;-1.456;2023-07-30T02:55:02;13.80;99.90
16871;DHT22;8552;48.120;-1.456;2023-07-30T02:57:28;13.90;99.90
16871;DHT22;8552;48.120;-1.456;2023-07-30T02:59:54;13.90;99.90
16871;DHT22;8552;48.120;-1.456;2023-07-30T03:02:19;13.90;99.90
16871;DHT22;8552;48.120;-1.456;2023-07-30T03:04:45;14.00;99.90
16871;DHT22;8552;48.120;-1.456;2023-07-30T03:07:11;14.00;99.90
16871;DHT22;8552;48.120;-1.456;2023-07-30T03:09:36;14.00;99.90
16871;DHT22;8552;48.120;-1.456;2023-07-30T03:12:02;14.00;99.90
16871;DHT22;8552;48.120;-1.456;2023-07-30T03:14:29;14.10;99.90
16871;DHT22;8552;48.120;-1.456;2023-07-30T03:16:54;14.10;99.90
16871;DHT22;8552;48.120;-1.456;2023-07-30T03:19:20;14.10;99.90
16871;DHT22;8552;48.120;-1.456;2023-07-30T03:21:46;14.10;99.90
16871;DHT22;8552;48.120;-1.456;2023-07-30T03:24:11;14.10;99.90
16871;DHT22;8552;48.120;-1.456;2023-07-30T03:26:37;14.20;99.90
16871;DHT22;8552;48.120;-1.456;2023-07-30T03:29:03;14.20;99.90
16871;DHT22;8552;48.120;-1.456;2023-07-30T03:31:28;14.20;99.90
16871;DHT22;8552;48.120;-1.456;2023-07-30T03:33:54;14.20;99.90
16871;DHT22;8552;48.120;-1.456;2023-07-30T03:36:20;14.20;99.90
16871;DHT22;8552;48.120;-1.456;2023-07-30T03:38:46;14.20;99.90
16871;DHT22;8552;48.120;-1.456;2023-07-30T03:41:11;14.20;99.90
16871;DHT22;8552;48.120;-1.456;2023-07-30T03:43:37;14.20;99.90
16871;DHT22;8552;48.120;-1.456;2023-07-30T03:46:03;14.20;99.90
16871;DHT22;8552;48.120;-1.456;2023-07-30T03:48:28;14.20;99.90
16871;DHT22;8552;48.120;-1.456;2023-07-30T03:50:54;14.20;99.90
16871;DHT22;8552;48.120;-1.456;2023-07-30T03:53:21;14.20;99.90
16871;DHT22;8552;48.120;-1.456;2023-07-30T03:55:46;14.20;99.90
16871;DHT22;8552;48.120;-1.456;2023-07-30T03:58:12;14.10;99.90
16871;DHT22;8552;48.120;-1.456;2023-07-30T04:00:38;14.10;99.90
16871;DHT22;8552;48.120;-1.456;2023-07-30T04:03:03;14.00;99.90
16871;DHT22;8552;48.120;-1.456;2023-07-30T04:05:30;14.00;99.90
16871;DHT22;8552;48.120;-1.456;2023-07-30T04:07:55;14.00;99.90
16871;DHT22;8552;48.120;-1.456;2023-07-30T04:10:21;13.90;99.90
16871;DHT22;8552;48.120;-1.456;2023-07-30T04:12:47;13.90;99.90
16871;DHT22;8552;48.120;-1.456;2023-07-30T04:15:14;13.90;99.90
16871;DHT22;8552;48.120;-1.456;2023-07-30T04:17:39;13.80;99.90
16871;DHT22;8552;48.120;-1.456;2023-07-30T04:20:05;13.80;99.90
16871;DHT22;8552;48.120;-1.456;2023-07-30T04:22:31;13.80;99.90
16871;DHT22;8552;48.120;-1.456;2023-07-30T04:24:57;13.70;99.90
16871;DHT22;8552;48.120;-1.456;2023-07-30T04:27:22;13.70;99.90
16871;DHT22;8552;48.120;-1.456;2023-07-30T04:29:48;13.60;99.90
16871;DHT22;8552;48.120;-1.456;2023-07-30T04:32:14;13.60;99.90
16871;DHT22;8552;48.120;-1.456;2023-07-30T04:34:40;13.60;99.90
16871;DHT22;8552;48.120;-1.456;2023-07-30T04:37:06;13.60;99.90
16871;DHT22;8552;48.120;-1.456;2023-07-30T04:39:35;13.60;99.90
16871;DHT22;8552;48.120;-1.456;2023-07-30T04:42:01;13.60;99.90
16871;DHT22;8552;48.120;-1.456;2023-07-30T04:44:27;13.70;99.90
16871;DHT22;8552;48.120;-1.456;2023-07-30T04:46:53;13.70;99.90
16871;DHT22;8552;48.120;-1.456;2023-07-30T04:49:18;13.70;99.90
16871;DHT22;8552;48.120;-1.456;2023-07-30T04:51:44;13.80;99.90
16871;DHT22;8552;48.120;-1.456;2023-07-30T04:54:10;13.80;99.90
16871;DHT22;8552;48.120;-1.456;2023-07-30T04:56:36;13.80;99.90
16871;DHT22;8552;48.120;-1.456;2023-07-30T04:59:02;13.80;99.90
16871;DHT22;8552;48.120;-1.456;2023-07-30T05:01:28;13.90;99.90
16871;DHT22;8552;48.120;-1.456;2023-07-30T05:03:54;13.90;99.90
16871;DHT22;8552;48.120;-1.456;2023-07-30T05:06:20;13.90;99.90
16871;DHT22;8552;48.120;-1.456;2023-07-30T05:08:46;13.90;99.90
16871;DHT22;8552;48.120;-1.456;2023-07-30T05:11:12;14.00;99.90
16871;DHT22;8552;48.120;-1.456;2023-07-30T05:13:37;14.00;99.90
16871;DHT22;8552;48.120;-1.456;2023-07-30T05:16:03;14.00;99.90
16871;DHT22;8552;48.120;-1.456;2023-07-30T05:18:29;14.10;99.90
16871;DHT22;8552;48.120;-1.456;2023-07-30T05:20:55;14.10;99.90
16871;DHT22;8552;48.120;-1.456;2023-07-30T05:23:21;14.20;99.90
16871;DHT22;8552;48.120;-1.456;2023-07-30T05:25:46;14.20;99.90
16871;DHT22;8552;48.120;-1.456;2023-07-30T05:28:12;14.20;99.90
16871;DHT22;8552;48.120;-1.456;2023-07-30T05:30:38;14.20;99.90
16871;DHT22;8552;48.120;-1.456;2023-07-30T05:33:03;14.30;99.90
16871;DHT22;8552;48.120;-1.456;2023-07-30T05:35:29;14.30;99.90
16871;DHT22;8552;48.120;-1.456;2023-07-30T05:37:55;14.40;99.90
16871;DHT22;8552;48.120;-1.456;2023-07-30T05:40:21;14.40;99.90
16871;DHT22;8552;48.120;-1.456;2023-07-30T05:42:46;14.50;99.90
16871;DHT22;8552;48.120;-1.456;2023-07-30T05:45:12;14.50;99.90
16871;DHT22;8552;48.120;-1.456;2023-07-30T05:47:38;14.60;99.90
16871;DHT22;8552;48.120;-1.456;2023-07-30T05:50:04;14.60;99.90
16871;DHT22;8552;48.120;-1.456;2023-07-30T05:52:30;14.70;99.90
16871;DHT22;8552;48.120;-1.456;2023-07-30T05:54:55;14.70;99.90
16871;DHT22;8552;48.120;-1.456;2023-07-30T05:57:21;14.80;99.90
16871;DHT22;8552;48.120;-1.456;2023-07-30T05:59:47;14.80;99.90
16871;DHT22;8552;48.120;-1.456;2023-07-30T06:02:12;14.90;99.90
16871;DHT22;8552;48.120;-1.456;2023-07-30T06:04:38;14.90;99.90
16871;DHT22;8552;48.120;-1.456;2023-07-30T06:07:04;15.00;99.90
16871;DHT22;8552;48.120;-1.456;2023-07-30T06:09:29;15.10;99.90
16871;DHT22;8552;48.120;-1.456;2023-07-30T06:11:56;15.10;99.90
16871;DHT22;8552;48.120;-1.456;2023-07-30T06:14:25;15.10;99.90
16871;DHT22;8552;48.120;-1.456;2023-07-30T06:16:52;15.20;99.90
16871;DHT22;8552;48.120;-1.456;2023-07-30T06:19:18;15.20;99.90
16871;DHT22;8552;48.120;-1.456;2023-07-30T06:21:44;15.30;99.90
16871;DHT22;8552;48.120;-1.456;2023-07-30T06:24:09;15.40;99.90
16871;DHT22;8552;48.120;-1.456;2023-07-30T06:26:35;15.40;99.90
16871;DHT22;8552;48.120;-1.456;2023-07-30T06:29:01;15.50;99.90
16871;DHT22;8552;48.120;-1.456;2023-07-30T06:31:27;15.60;99.90
16871;DHT22;8552;48.120;-1.456;2023-07-30T06:33:52;15.60;99.90
16871;DHT22;8552;48.120;-1.456;2023-07-30T06:36:18;15.70;99.90
16871;DHT22;8552;48.120;-1.456;2023-07-30T06:38:44;15.80;99.90
16871;DHT22;8552;48.120;-1.456;2023-07-30T06:41:09;15.80;99.90
16871;DHT22;8552;48.120;-1.456;2023-07-30T06:43:35;15.90;99.90
16871;DHT22;8552;48.120;-1.456;2023-07-30T06:46:01;16.00;99.90
16871;DHT22;8552;48.120;-1.456;2023-07-30T06:48:26;16.00;99.90
16871;DHT22;8552;48.120;-1.456;2023-07-30T06:50:52;16.10;99.90
16871;DHT22;8552;48.120;-1.456;2023-07-30T06:53:17;16.10;99.90
16871;DHT22;8552;48.120;-1.456;2023-07-30T06:55:43;16.20;99.90
16871;DHT22;8552;48.120;-1.456;2023-07-30T06:58:10;16.30;99.90
16871;DHT22;8552;48.120;-1.456;2023-07-30T07:00:35;16.30;99.90
16871;DHT22;8552;48.120;-1.456;2023-07-30T07:03:01;16.40;99.90
16871;DHT22;8552;48.120;-1.456;2023-07-30T07:05:27;16.40;99.90
16871;DHT22;8552;48.120;-1.456;2023-07-30T07:07:52;16.40;99.90
16871;DHT22;8552;48.120;-1.456;2023-07-30T07:10:18;16.50;99.90
16871;DHT22;8552;48.120;-1.456;2023-07-30T07:12:43;16.50;99.90
16871;DHT22;8552;48.120;-1.456;2023-07-30T07:15:09;16.50;99.90
16871;DHT22;8552;48.120;-1.456;2023-07-30T07:17:35;16.60;99.90
16871;DHT22;8552;48.120;-1.456;2023-07-30T07:20:01;16.60;99.90
16871;DHT22;8552;48.120;-1.456;2023-07-30T07:22:29;16.70;99.90
16871;DHT22;8552;48.120;-1.456;2023-07-30T07:24:54;16.80;99.90
16871;DHT22;8552;48.120;-1.456;2023-07-30T07:27:20;16.90;99.90
16871;DHT22;8552;48.120;-1.456;2023-07-30T07:29:46;16.90;99.90
16871;DHT22;8552;48.120;-1.456;2023-07-30T07:32:12;17.10;99.90
16871;DHT22;8552;48.120;-1.456;2023-07-30T07:34:37;17.10;99.90
16871;DHT22;8552;48.120;-1.456;2023-07-30T07:37:03;17.20;99.90
16871;DHT22;8552;48.120;-1.456;2023-07-30T07:39:29;17.20;99.90
16871;DHT22;8552;48.120;-1.456;2023-07-30T07:41:55;17.20;99.90
16871;DHT22;8552;48.120;-1.456;2023-07-30T07:44:21;17.30;99.90
16871;DHT22;8552;48.120;-1.456;2023-07-30T07:46:48;17.40;99.90
16871;DHT22;8552;48.120;-1.456;2023-07-30T07:49:13;17.50;99.90
16871;DHT22;8552;48.120;-1.456;2023-07-30T07:51:39;17.60;99.90
16871;DHT22;8552;48.120;-1.456;2023-07-30T07:54:05;17.70;99.90
16871;DHT22;8552;48.120;-1.456;2023-07-30T07:56:31;17.80;99.90
16871;DHT22;8552;48.120;-1.456;2023-07-30T07:58:57;17.80;99.90
16871;DHT22;8552;48.120;-1.456;2023-07-30T08:01:23;17.90;99.90
16871;DHT22;8552;48.120;-1.456;2023-07-30T08:03:48;18.10;99.90
16871;DHT22;8552;48.120;-1.456;2023-07-30T08:06:14;17.90;99.90
16871;DHT22;8552;48.120;-1.456;2023-07-30T08:08:40;18.00;99.90
16871;DHT22;8552;48.120;-1.456;2023-07-30T08:11:06;18.00;99.90
16871;DHT22;8552;48.120;-1.456;2023-07-30T08:13:33;18.10;99.90
16871;DHT22;8552;48.120;-1.456;2023-07-30T08:15:58;18.20;99.90
16871;DHT22;8552;48.120;-1.456;2023-07-30T08:18:24;18.20;99.90
16871;DHT22;8552;48.120;-1.456;2023-07-30T08:20:50;18.20;99.90
16871;DHT22;8552;48.120;-1.456;2023-07-30T08:23:16;18.30;99.90
16871;DHT22;8552;48.120;-1.456;2023-07-30T08:25:41;18.40;99.90
16871;DHT22;8552;48.120;-1.456;2023-07-30T08:28:07;18.60;99.90
16871;DHT22;8552;48.120;-1.456;2023-07-30T08:30:33;18.80;99.90
16871;DHT22;8552;48.120;-1.456;2023-07-30T08:32:59;18.90;99.90
16871;DHT22;8552;48.120;-1.456;2023-07-30T08:35:24;19.10;99.90
16871;DHT22;8552;48.120;-1.456;2023-07-30T08:37:52;18.90;99.90
16871;DHT22;8552;48.120;-1.456;2023-07-30T08:40:18;18.90;99.90
16871;DHT22;8552;48.120;-1.456;2023-07-30T08:42:45;19.00;99.90
16871;DHT22;8552;48.120;-1.456;2023-07-30T08:45:11;19.00;99.90
16871;DHT22;8552;48.120;-1.456;2023-07-30T08:47:39;19.00;99.90
16871;DHT22;8552;48.120;-1.456;2023-07-30T08:50:06;19.10;99.90
16871;DHT22;8552;48.120;-1.456;2023-07-30T08:52:32;19.20;99.90
16871;DHT22;8552;48.120;-1.456;2023-07-30T08:55:01;19.20;99.90
16871;DHT22;8552;48.120;-1.456;2023-07-30T08:57:29;19.20;99.90
16871;DHT22;8552;48.120;-1.456;2023-07-30T09:00:07;19.40;99.90
16871;DHT22;8552;48.120;-1.456;2023-07-30T09:02:38;19.30;99.90
16871;DHT22;8552;48.120;-1.456;2023-07-30T09:05:05;19.50;99.90
16871;DHT22;8552;48.120;-1.456;2023-07-30T09:07:31;19.60;99.90
16871;DHT22;8552;48.120;-1.456;2023-07-30T09:09:57;19.60;99.90
16871;DHT22;8552;48.120;-1.456;2023-07-30T09:12:29;19.90;99.90
16871;DHT22;8552;48.120;-1.456;2023-07-30T09:14:55;20.10;99.90
16871;DHT22;8552;48.120;-1.456;2023-07-30T09:17:20;20.40;99.90
16871;DHT22;8552;48.120;-1.456;2023-07-30T09:19:46;20.50;99.90
16871;DHT22;8552;48.120;-1.456;2023-07-30T09:22:13;20.70;99.90
16871;DHT22;8552;48.120;-1.456;2023-07-30T09:24:44;20.80;99.90
16871;DHT22;8552;48.120;-1.456;2023-07-30T09:27:10;21.10;99.90
16871;DHT22;8552;48.120;-1.456;2023-07-30T09:29:36;21.30;99.90
16871;DHT22;8552;48.120;-1.456;2023-07-30T09:32:02;21.50;99.90
16871;DHT22;8552;48.120;-1.456;2023-07-30T09:34:28;21.30;99.90
16871;DHT22;8552;48.120;-1.456;2023-07-30T09:36:55;21.40;99.90
16871;DHT22;8552;48.120;-1.456;2023-07-30T09:39:24;21.40;99.90
16871;DHT22;8552;48.120;-1.456;2023-07-30T09:42:00;21.20;99.90
16871;DHT22;8552;48.120;-1.456;2023-07-30T09:44:26;21.10;99.90
16871;DHT22;8552;48.120;-1.456;2023-07-30T09:46:52;20.80;99.90
16871;DHT22;8552;48.120;-1.456;2023-07-30T09:49:18;20.90;99.90
16871;DHT22;8552;48.120;-1.456;2023-07-30T09:51:44;20.90;99.90
16871;DHT22;8552;48.120;-1.456;2023-07-30T09:54:12;20.90;99.90
16871;DHT22;8552;48.120;-1.456;2023-07-30T09:56:39;21.20;99.90
16871;DHT22;8552;48.120;-1.456;2023-07-30T09:59:06;21.40;99.90
16871;DHT22;8552;48.120;-1.456;2023-07-30T10:01:41;21.50;99.90
16871;DHT22;8552;48.120;-1.456;2023-07-30T10:04:09;21.50;99.90
16871;DHT22;8552;48.120;-1.456;2023-07-30T10:06:42;21.50;99.90
16871;DHT22;8552;48.120;-1.456;2023-07-30T10:09:12;21.70;99.90
16871;DHT22;8552;48.120;-1.456;2023-07-30T10:11:38;21.80;99.90
16871;DHT22;8552;48.120;-1.456;2023-07-30T10:14:05;22.00;99.90
16871;DHT22;8552;48.120;-1.456;2023-07-30T10:16:31;21.90;99.90
16871;DHT22;8552;48.120;-1.456;2023-07-30T10:18:57;21.70;99.90
16871;DHT22;8552;48.120;-1.456;2023-07-30T10:21:25;21.80;99.90
16871;DHT22;8552;48.120;-1.456;2023-07-30T10:24:04;21.90;99.90
16871;DHT22;8552;48.120;-1.456;2023-07-30T10:26:32;22.10;99.90
16871;DHT22;8552;48.120;-1.456;2023-07-30T10:29:27;22.00;99.90
16871;DHT22;8552;48.120;-1.456;2023-07-30T10:31:54;21.90;99.90
16871;DHT22;8552;48.120;-1.456;2023-07-30T10:34:21;21.90;99.90
16871;DHT22;8552;48.120;-1.456;2023-07-30T10:36:51;21.90;99.90
16871;DHT22;8552;48.120;-1.456;2023-07-30T10:39:35;21.90;99.90
16871;DHT22;8552;48.120;-1.456;2023-07-30T10:42:01;21.90;99.90
16871;DHT22;8552;48.120;-1.456;2023-07-30T10:44:31;22.00;99.90
16871;DHT22;8552;48.120;-1.456;2023-07-30T10:46:58;21.90;99.90
16871;DHT22;8552;48.120;-1.456;2023-07-30T10:49:24;21.90;99.90
16871;DHT22;8552;48.120;-1.456;2023-07-30T10:51:55;21.90;99.90
16871;DHT22;8552;48.120;-1.456;2023-07-30T10:54:21;22.00;99.90
16871;DHT22;8552;48.120;-1.456;2023-07-30T10:56:47;22.00;99.90
16871;DHT22;8552;48.120;-1.456;2023-07-30T10:59:14;22.20;99.90
16871;DHT22;8552;48.120;-1.456;2023-07-30T11:01:42;22.30;99.90
16871;DHT22;8552;48.120;-1.456;2023-07-30T11:04:18;22.30;99.90
16871;DHT22;8552;48.120;-1.456;2023-07-30T11:06:53;22.50;99.90
16871;DHT22;8552;48.120;-1.456;2023-07-30T11:09:24;22.60;99.90
16871;DHT22;8552;48.120;-1.456;2023-07-30T11:11:51;22.60;99.90
16871;DHT22;8552;48.120;-1.456;2023-07-30T11:14:21;23.00;99.90
16871;DHT22;8552;48.120;-1.456;2023-07-30T11:16:52;23.20;99.90
16871;DHT22;8552;48.120;-1.456;2023-07-30T11:19:18;23.20;99.90
16871;DHT22;8552;48.120;-1.456;2023-07-30T11:21:51;23.40;99.90
16871;DHT22;8552;48.120;-1.456;2023-07-30T11:24:17;23.80;99.90
16871;DHT22;8552;48.120;-1.456;2023-07-30T11:26:43;23.90;99.90
16871;DHT22;8552;48.120;-1.456;2023-07-30T11:29:16;23.80;99.90
16871;DHT22;8552;48.120;-1.456;2023-07-30T11:31:43;23.90;99.90
16871;DHT22;8552;48.120;-1.456;2023-07-30T11:34:09;24.00;99.90
16871;DHT22;8552;48.120;-1.456;2023-07-30T11:36:34;24.10;99.90
16871;DHT22;8552;48.120;-1.456;2023-07-30T11:39:00;24.20;99.90
16871;DHT22;8552;48.120;-1.456;2023-07-30T11:41:27;24.10;99.90
16871;DHT22;8552;48.120;-1.456;2023-07-30T11:43:54;24.00;99.90
16871;DHT22;8552;48.120;-1.456;2023-07-30T11:46:20;24.00;99.90
16871;DHT22;8552;48.120;-1.456;2023-07-30T11:48:49;23.80;99.90
16871;DHT22;8552;48.120;-1.456;2023-07-30T11:51:23;23.50;99.90
16871;DHT22;8552;48.120;-1.456;2023-07-30T11:53:57;23.70;99.90
16871;DHT22;8552;48.120;-1.456;2023-07-30T11:56:25;23.80;99.90
16871;DHT22;8552;48.120;-1.456;2023-07-30T11:59:02;23.90;99.90
16871;DHT22;8552;48.120;-1.456;2023-07-30T12:01:31;23.60;99.90
16871;DHT22;8552;48.120;-1.456;2023-07-30T12:03:58;23.60;99.90
16871;DHT22;8552;48.120;-1.456;2023-07-30T12:06:24;23.70;99.90
16871;DHT22;8552;48.120;-1.456;2023-07-30T12:09:17;23.70;99.90
16871;DHT22;8552;48.120;-1.456;2023-07-30T12:11:50;23.70;99.90
16871;DHT22;8552;48.120;-1.456;2023-07-30T12:14:18;23.80;99.90
16871;DHT22;8552;48.120;-1.456;2023-07-30T12:16:43;23.90;99.90
16871;DHT22;8552;48.120;-1.456;2023-07-30T12:19:09;24.00;99.90
16871;DHT22;8552;48.120;-1.456;2023-07-30T12:21:35;24.00;99.90
16871;DHT22;8552;48.120;-1.456;2023-07-30T12:24:01;24.20;99.90
16871;DHT22;8552;48.120;-1.456;2023-07-30T12:26:27;24.30;99.90
16871;DHT22;8552;48.120;-1.456;2023-07-30T12:28:53;24.20;99.90
16871;DHT22;8552;48.120;-1.456;2023-07-30T12:31:18;24.10;99.90
16871;DHT22;8552;48.120;-1.456;2023-07-30T12:33:44;23.80;99.90
16871;DHT22;8552;48.120;-1.456;2023-07-30T12:36:10;23.50;99.90
16871;DHT22;8552;48.120;-1.456;2023-07-30T12:38:35;23.50;99.90
16871;DHT22;8552;48.120;-1.456;2023-07-30T12:41:01;23.50;99.90
16871;DHT22;8552;48.120;-1.456;2023-07-30T12:43:27;23.60;99.90
16871;DHT22;8552;48.120;-1.456;2023-07-30T12:45:52;23.50;99.90
16871;DHT22;8552;48.120;-1.456;2023-07-30T12:48:18;23.50;99.90
16871;DHT22;8552;48.120;-1.456;2023-07-30T12:50:44;23.40;99.90
16871;DHT22;8552;48.120;-1.456;2023-07-30T12:53:10;23.40;99.90
16871;DHT22;8552;48.120;-1.456;2023-07-30T12:55:36;23.10;99.90
16871;DHT22;8552;48.120;-1.456;2023-07-30T12:58:02;23.00;99.90
16871;DHT22;8552;48.120;-1.456;2023-07-30T13:00:28;22.90;99.90
16871;DHT22;8552;48.120;-1.456;2023-07-30T13:02:54;22.70;99.90
16871;DHT22;8552;48.120;-1.456;2023-07-30T13:05:22;22.70;99.90
16871;DHT22;8552;48.120;-1.456;2023-07-30T13:07:48;22.80;99.90
16871;DHT22;8552;48.120;-1.456;2023-07-30T13:10:14;22.50;99.90
16871;DHT22;8552;48.120;-1.456;2023-07-30T13:12:40;22.30;99.90
16871;DHT22;8552;48.120;-1.456;2023-07-30T13:15:06;22.20;99.90
16871;DHT22;8552;48.120;-1.456;2023-07-30T13:17:32;22.20;99.90
16871;DHT22;8552;48.120;-1.456;2023-07-30T13:19:58;22.20;99.90
16871;DHT22;8552;48.120;-1.456;2023-07-30T13:22:24;22.20;99.90
16871;DHT22;8552;48.120;-1.456;2023-07-30T13:24:50;22.20;99.90
16871;DHT22;8552;48.120;-1.456;2023-07-30T13:27:17;22.00;99.90
16871;DHT22;8552;48.120;-1.456;2023-07-30T13:29:42;21.70;99.90
16871;DHT22;8552;48.120;-1.456;2023-07-30T13:32:08;21.60;99.90
16871;DHT22;8552;48.120;-1.456;2023-07-30T13:34:34;21.70;99.90
16871;DHT22;8552;48.120;-1.456;2023-07-30T13:37:00;21.60;99.90
16871;DHT22;8552;48.120;-1.456;2023-07-30T13:39:26;21.80;99.90
16871;DHT22;8552;48.120;-1.456;2023-07-30T13:41:51;22.10;99.90
16871;DHT22;8552;48.120;-1.456;2023-07-30T13:44:17;22.40;99.90
16871;DHT22;8552;48.120;-1.456;2023-07-30T13:46:43;22.60;99.90
16871;DHT22;8552;48.120;-1.456;2023-07-30T13:49:08;22.30;99.90
16871;DHT22;8552;48.120;-1.456;2023-07-30T13:51:34;22.20;99.90
16871;DHT22;8552;48.120;-1.456;2023-07-30T13:54:00;22.30;99.90
16871;DHT22;8552;48.120;-1.456;2023-07-30T13:56:27;22.30;99.90
16871;DHT22;8552;48.120;-1.456;2023-07-30T13:58:53;22.40;99.90
16871;DHT22;8552;48.120;-1.456;2023-07-30T14:01:18;22.60;99.90
16871;DHT22;8552;48.120;-1.456;2023-07-30T14:03:44;22.80;99.90
16871;DHT22;8552;48.120;-1.456;2023-07-30T14:06:10;22.70;99.90
16871;DHT22;8552;48.120;-1.456;2023-07-30T14:08:36;22.80;99.90
16871;DHT22;8552;48.120;-1.456;2023-07-30T14:11:02;23.00;99.90
16871;DHT22;8552;48.120;-1.456;2023-07-30T14:13:28;23.20;99.90
16871;DHT22;8552;48.120;-1.456;2023-07-30T14:15:53;23.30;99.90
16871;DHT22;8552;48.120;-1.456;2023-07-30T14:18:19;23.50;99.90
16871;DHT22;8552;48.120;-1.456;2023-07-30T14:20:45;23.50;99.90
16871;DHT22;8552;48.120;-1.456;2023-07-30T14:23:11;23.70;99.90
16871;DHT22;8552;48.120;-1.456;2023-07-30T14:25:37;23.80;99.90
16871;DHT22;8552;48.120;-1.456;2023-07-30T14:28:04;23.60;99.90
16871;DHT22;8552;48.120;-1.456;2023-07-30T14:30:29;23.40;99.90
16871;DHT22;8552;48.120;-1.456;2023-07-30T14:32:55;23.40;99.90
16871;DHT22;8552;48.120;-1.456;2023-07-30T14:35:21;23.20;99.90
16871;DHT22;8552;48.120;-1.456;2023-07-30T14:37:47;23.10;99.90
16871;DHT22;8552;48.120;-1.456;2023-07-30T14:40:12;23.00;99.90
16871;DHT22;8552;48.120;-1.456;2023-07-30T14:42:38;22.90;99.90
16871;DHT22;8552;48.120;-1.456;2023-07-30T14:45:05;22.70;99.90
16871;DHT22;8552;48.120;-1.456;2023-07-30T14:47:31;22.50;99.90
16871;DHT22;8552;48.120;-1.456;2023-07-30T14:49:58;22.30;99.90
16871;DHT22;8552;48.120;-1.456;2023-07-30T14:52:24;22.20;99.90
16871;DHT22;8552;48.120;-1.456;2023-07-30T14:54:49;22.30;99.90
16871;DHT22;8552;48.120;-1.456;2023-07-30T14:57:16;22.30;99.90
16871;DHT22;8552;48.120;-1.456;2023-07-30T14:59:42;22.30;99.90
16871;DHT22;8552;48.120;-1.456;2023-07-30T15:02:07;22.20;99.90
16871;DHT22;8552;48.120;-1.456;2023-07-30T15:04:33;22.20;99.90
16871;DHT22;8552;48.120;-1.456;2023-07-30T15:06:59;22.10;99.90
16871;DHT22;8552;48.120;-1.456;2023-07-30T15:09:25;22.10;99.90
16871;DHT22;8552;48.120;-1.456;2023-07-30T15:11:50;22.10;99.90
16871;DHT22;8552;48.120;-1.456;2023-07-30T15:14:16;22.20;99.90
16871;DHT22;8552;48.120;-1.456;2023-07-30T15:16:42;22.40;99.90
16871;DHT22;8552;48.120;-1.456;2023-07-30T15:19:07;22.40;99.90
16871;DHT22;8552;48.120;-1.456;2023-07-30T15:21:33;22.50;99.90
16871;DHT22;8552;48.120;-1.456;2023-07-30T15:24:00;22.40;99.90
16871;DHT22;8552;48.120;-1.456;2023-07-30T15:26:26;22.40;99.90